Time;durP1;ratioP1;P1;durP2;ratioP2;P2;SDS_P1;SDS_P2;PMS_P1;PMS_P2;Temp;Humidity;BMP_temperature;BMP_pressure;BME280_temperature;BME280_humidity;BME280_pressure;Samples;Min_cycle;Max_cycle;Signal;HPM_P1;HPM_P2
2023/07/28 00:01:24;;;;;;;10.00;6.57;;;;;;;14.01;73.64;97730.19;10290666;28;20141;-49
2023/07/28 00:06:23;;;;;;;;;;;;;;;13.98;74.14;97725.00;10290716;28;20116;-50
2023/07/28 00:11:22;;;;;;;9.13;6.90;;;;;;;13.95;73.85;97730.25;10289247;28;20048;-50
2023/07/28 00:16:21;;;;;;;10.55;7.07;;;;;;;13.90;73.70;97725.13;10290097;28;20108;-52
2023/07/28 00:21:20;;;;;;;;;;;;;;;13.83;74.04;97735.66;10289943;28;20072;-52
2023/07/28 00:26:19;;;;;;;7.65;6.32;;;;;;;13.80;74.03;97736.56;10289481;28;19917;-50
2023/07/28 00:31:18;;;;;;;7.80;6.30;;;;;;;13.73;74.88;97729.72;10289505;28;20574;-52
2023/07/28 00:36:17;;;;;;;7.60;5.75;;;;;;;13.58;75.08;97738.59;10289389;28;20459;-52
2023/07/28 00:41:16;;;;;;;7.22;5.80;;;;;;;13.43;75.04;97734.41;10288408;28;20410;-51
2023/07/28 00:46:15;;;;;;;10.55;6.32;;;;;;;13.36;75.93;97727.56;10289340;28;20041;-52
2023/07/28 00:51:15;;;;;;;8.48;6.40;;;;;;;13.38;75.80;97719.75;10288349;28;20061;-52
2023/07/28 00:56:15;;;;;;;9.40;6.90;;;;;;;13.33;75.65;97714.59;10288269;28;20061;-50
2023/07/28 01:01:14;;;;;;;7.43;6.53;;;;;;;13.26;77.01;97728.56;10288620;28;20137;-52
2023/07/28 01:06:41;;;;;;;7.25;6.28;;;;;;;13.20;77.32;97731.25;10287882;28;20038;-52
2023/07/28 01:11:53;;;;;;;8.13;5.57;;;;;;;13.06;77.55;97731.41;10287629;28;20130;-50
2023/07/28 01:16:52;;;;;;;8.27;6.38;;;;;;;12.86;78.25;97729.88;10288321;28;20065;-49
2023/07/28 01:22:15;;;;;;;8.02;5.97;;;;;;;12.81;78.64;97733.41;10286673;28;20079;-50
2023/07/28 01:27:15;;;;;;;9.93;6.45;;;;;;;12.77;78.41;97734.31;10286910;28;20547;-52
2023/07/28 01:32:14;;;;;;;8.95;6.30;;;;;;;12.57;79.50;97748.38;10286313;28;20074;-52
2023/07/28 01:37:13;;;;;;;8.32;7.28;;;;;;;12.33;80.64;97717.38;10308379;28;20056;-52
2023/07/28 01:42:12;;;;;;;;;;;;;;;12.41;80.89;97729.44;10286562;28;20068;-49
2023/07/28 01:47:11;;;;;;;18.77;15.25;;;;;;;12.27;81.64;97719.16;10286636;28;19948;-52
2023/07/28 01:52:10;;;;;;;16.40;11.35;;;;;;;12.17;81.67;97716.59;10285667;28;20041;-50
2023/07/28 01:57:09;;;;;;;16.13;10.23;;;;;;;12.12;81.51;97727.03;10286793;28;20040;-50
2023/07/28 02:02:08;;;;;;;13.25;9.00;;;;;;;12.14;81.29;97733.09;10285832;28;20026;-50
2023/07/28 02:07:06;;;;;;;9.68;7.10;;;;;;;12.12;81.26;97723.59;10285989;28;20404;-50
2023/07/28 02:12:06;;;;;;;7.50;6.65;;;;;;;12.05;81.63;97714.97;10285386;28;20038;-52
2023/07/28 02:17:05;;;;;;;8.73;7.25;;;;;;;12.12;81.26;97728.78;10284669;28;20117;-52
2023/07/28 02:22:04;;;;;;;9.23;7.30;;;;;;;12.09;81.88;97727.06;10284898;28;20073;-51
2023/07/28 02:27:03;;;;;;;;;;;;;;;12.14;82.23;97737.44;10287580;28;20057;-52
2023/07/28 02:32:03;;;;;;;11.85;6.93;;;;;;;12.12;82.03;97728.78;10287041;28;19922;-50
2023/07/28 02:37:02;;;;;;;9.00;6.97;;;;;;;12.12;82.24;97734.00;10297585;28;20068;-51
2023/07/28 02:42:01;;;;;;;;;;;;;;;12.07;82.20;97736.63;10311125;28;20088;-49
2023/07/28 02:47:00;;;;;;;9.00;7.35;;;;;;;12.01;82.27;97736.66;10287169;28;19943;-50
2023/07/28 02:51:59;;;;;;;9.80;7.18;;;;;;;11.95;82.84;97744.53;10309933;28;20045;-52
2023/07/28 02:56:58;;;;;;;9.75;7.65;;;;;;;11.87;82.87;97740.19;10287910;28;20442;-51
2023/07/28 03:01:57;;;;;;;11.77;8.25;;;;;;;11.75;83.66;97750.69;10287271;28;20034;-52
2023/07/28 03:06:56;;;;;;;9.25;7.88;;;;;;;11.61;84.44;97753.34;10286895;28;20449;-53
2023/07/28 03:11:55;;;;;;;11.75;8.13;;;;;;;11.55;84.73;97757.72;10285992;28;20109;-52
2023/07/28 03:16:54;;;;;;;13.38;8.75;;;;;;;11.56;84.36;97756.88;10286455;28;20499;-51
2023/07/28 03:21:53;;;;;;;12.05;8.25;;;;;;;11.62;83.90;97749.03;10286548;28;20447;-52
2023/07/28 03:26:51;;;;;;;8.65;7.45;;;;;;;11.65;84.62;97759.41;10284475;28;20396;-50
2023/07/28 03:31:50;;;;;;;9.52;8.10;;;;;;;11.73;84.10;97748.97;10288752;28;20130;-50
2023/07/28 03:36:49;;;;;;;11.48;8.57;;;;;;;11.77;84.54;97755.88;10291471;28;20028;-50
2023/07/28 03:41:48;;;;;;;11.10;8.10;;;;;;;11.75;84.88;97753.28;10291352;28;20129;-53
2023/07/28 03:46:47;;;;;;;13.63;8.05;;;;;;;11.71;84.99;97755.91;10290559;28;20034;-52
2023/07/28 03:51:46;;;;;;;9.98;7.85;;;;;;;11.77;84.59;97759.34;10290973;28;20479;-50
2023/07/28 03:56:45;;;;;;;10.45;8.48;;;;;;;11.80;84.43;97769.72;10319868;28;20121;-52
2023/07/28 04:01:44;;;;;;;10.38;8.38;;;;;;;11.87;84.31;97755.81;10289640;28;20062;-52
2023/07/28 04:06:50;;;;;;;13.10;8.30;;;;;;;11.88;84.61;97760.16;10289644;28;20025;-52
2023/07/28 04:11:49;;;;;;;13.02;8.23;;;;;;;11.93;83.69;97770.53;10290305;28;20133;-51
2023/07/28 04:16:48;;;;;;;10.77;8.20;;;;;;;11.82;84.86;97773.19;10289932;28;20034;-50
2023/07/28 04:21:47;;;;;;;13.75;8.20;;;;;;;11.80;84.23;97769.72;10289574;28;20121;-52
2023/07/28 04:26:48;;;;;;;9.38;7.97;;;;;;;11.82;84.52;97767.97;10291051;28;20026;-49
2023/07/28 04:31:47;;;;;;;9.27;7.97;;;;;;;11.87;84.26;97761.00;10292055;28;20077;-50
2023/07/28 04:36:46;;;;;;;10.20;8.25;;;;;;;12.03;84.57;97766.13;10292316;28;20191;-51
2023/07/28 04:41:45;;;;;;;11.60;8.50;;;;;;;12.30;83.84;97765.97;10291677;28;20117;-50
2023/07/28 04:46:47;;;;;;;10.65;8.35;;;;;;;12.46;83.62;97755.41;10291396;28;20105;-49
2023/07/28 04:51:46;;;;;;;11.75;7.35;;;;;;;12.71;83.00;97767.34;10291705;28;20069;-49
2023/07/28 04:56:45;;;;;;;10.52;8.40;;;;;;;12.87;82.50;97767.19;10289388;28;20024;-51
2023/07/28 05:01:44;;;;;;;8.60;7.20;;;;;;;13.11;81.10;97766.94;10291362;28;20480;-50
2023/07/28 05:06:43;;;;;;;10.35;7.80;;;;;;;13.28;79.67;97763.25;10264520;28;20415;-51
2023/07/28 05:11:42;;;;;;;10.90;6.60;;;;;;;13.38;78.84;97764.03;10290596;28;20034;-50
2023/07/28 05:16:41;;;;;;;11.45;7.43;;;;;;;13.47;78.02;97763.91;10290048;28;20335;-51
2023/07/28 05:21:40;;;;;;;;;;;;;;;13.56;77.99;97754.28;10290701;28;20531;-51
2023/07/28 05:26:39;;;;;;;11.82;7.35;;;;;;;13.74;77.33;97752.31;10287309;28;20012;-50
2023/07/28 05:31:38;;;;;;;9.90;6.55;;;;;;;13.85;76.57;97750.41;10286491;28;20650;-51
2023/07/28 05:36:37;;;;;;;;;;;;;;;14.07;75.76;97745.72;10285956;28;20141;-52
2023/07/28 05:41:37;;;;;;;8.80;6.15;;;;;;;14.31;75.14;97744.50;10300642;28;19914;-49
2023/07/28 05:46:36;;;;;;;8.75;6.28;;;;;;;14.35;75.80;97724.41;10286216;28;20590;-51
2023/07/28 05:51:35;;;;;;;;;;;;;;;14.64;75.23;97747.44;10285594;28;20515;-51
2023/07/28 05:56:34;;;;;;;8.55;6.47;;;;;;;14.88;74.02;97740.94;10284513;28;19917;-49
2023/07/28 06:01:33;;;;;;;9.88;6.72;;;;;;;15.10;73.19;97732.69;10288883;28;20567;-52
2023/07/28 06:06:32;;;;;;;;;;;;;;;15.28;73.46;97728.84;10284980;28;20584;-51
2023/07/28 06:11:30;;;;;;;11.00;7.03;;;;;;;15.53;73.23;97727.44;10296495;28;20342;-51
2023/07/28 06:16:31;;;;;;;;;;;;;;;15.76;71.60;97715.59;10284968;28;20013;-48
2023/07/28 06:21:30;;;;;;;10.98;6.53;;;;;;;16.06;71.16;97714.94;10281061;28;20020;-49
2023/07/28 06:26:29;;;;;;;11.85;7.25;;;;;;;16.18;70.10;97705.91;10285350;28;20140;-50
2023/07/28 06:31:28;;;;;;;10.73;6.30;;;;;;;16.38;68.65;97705.44;10283987;28;20073;-50
2023/07/28 06:36:27;;;;;;;6.32;5.68;;;;;;;16.55;67.73;97697.16;10278557;28;20057;-50
2023/07/28 06:41:26;;;;;;;7.13;6.03;;;;;;;16.83;66.52;97694.69;10284166;28;20117;-52
2023/07/28 06:46:25;;;;;;;9.32;5.82;;;;;;;17.14;64.41;97691.22;10283579;28;20038;-50
2023/07/28 06:51:24;;;;;;;8.15;5.05;;;;;;;17.30;64.08;97695.13;10280277;28;20141;-51
2023/07/28 06:56:23;;;;;;;8.23;5.65;;;;;;;17.45;64.89;97690.31;10283825;28;21576;-52
2023/07/28 07:01:22;;;;;;;6.53;5.18;;;;;;;17.85;64.69;97697.91;10286761;28;20495;-51
2023/07/28 07:06:21;;;;;;;12.00;5.15;;;;;;;17.95;60.84;97674.84;10286280;28;20138;-51
2023/07/28 07:11:20;;;;;;;6.38;5.22;;;;;;;18.34;59.79;97688.44;10285333;28;20453;-52
2023/07/28 07:16:19;;;;;;;4.97;4.03;;;;;;;18.55;58.18;97680.72;10285390;28;20547;-52
2023/07/28 07:21:18;;;;;;;7.22;4.15;;;;;;;18.95;57.60;97679.38;10285726;28;20902;-49
2023/07/28 07:26:17;;;;;;;16.65;4.95;;;;;;;19.34;57.19;97665.66;10285672;28;20523;-51
2023/07/28 07:31:16;;;;;;;5.80;3.60;;;;;;;19.67;53.36;97674.06;10285326;28;20042;-52
2023/07/28 07:36:16;;;;;;;7.70;3.45;;;;;;;20.00;53.50;97671.00;10285252;28;20054;-51
2023/07/28 07:41:21;;;;;;;5.70;3.45;;;;;;;20.24;50.29;97664.75;10285961;28;20109;-51
2023/07/28 07:46:20;;;;;;;6.65;3.08;;;;;;;20.59;48.80;97675.63;10284617;28;20105;-50
2023/07/28 07:51:19;;;;;;;5.45;3.17;;;;;;;20.85;47.12;97668.38;10285327;28;20125;-51
2023/07/28 07:56:18;;;;;;;7.20;3.03;;;;;;;21.19;45.87;97669.50;10284998;28;20038;-52
2023/07/28 08:01:17;;;;;;;6.07;3.15;;;;;;;21.42;45.68;97671.97;10285144;28;20466;-52
2023/07/28 08:06:17;;;;;;;4.68;3.20;;;;;;;21.62;44.59;97678.13;10283739;28;20022;-50
2023/07/28 08:11:16;;;;;;;3.45;3.15;;;;;;;21.82;44.64;97659.53;10283480;28;20579;-51
2023/07/28 08:16:15;;;;;;;4.03;2.88;;;;;;;22.24;42.23;97671.63;10287899;28;20065;-53
2023/07/28 08:21:14;;;;;;;3.33;2.60;;;;;;;22.30;41.85;97631.66;10291305;28;20029;-53
2023/07/28 08:26:13;;;;;;;4.70;2.65;;;;;;;22.66;40.48;97659.81;10292081;28;20028;-52
2023/07/28 08:31:12;;;;;;;4.78;2.70;;;;;;;22.94;40.08;97655.75;10291895;28;20503;-52
2023/07/28 08:36:11;;;;;;;5.35;2.50;;;;;;;23.16;38.78;97656.34;10290000;28;20085;-53
2023/07/28 08:41:12;;;;;;;4.05;2.50;;;;;;;23.32;38.42;97647.56;10291389;28;20456;-51
2023/07/28 08:46:11;;;;;;;3.42;2.75;;;;;;;23.56;36.76;97645.38;10289564;28;20141;-52
2023/07/28 08:51:11;;;;;;;2.85;2.53;;;;;;;23.78;37.28;97634.47;10290304;28;20108;-52
2023/07/28 08:56:10;;;;;;;3.75;2.50;;;;;;;24.05;38.32;97634.66;10290615;28;20483;-52
2023/07/28 09:01:11;;;;;;;3.05;2.60;;;;;;;24.39;36.58;97633.59;10290045;28;20462;-51
2023/07/28 09:06:10;;;;;;;4.63;2.72;;;;;;;23.51;35.60;97470.84;10290240;28;20141;-52
2023/07/28 09:11:08;;;;;;;3.17;2.45;;;;;;;24.32;35.91;97575.72;10289439;28;20129;-52
2023/07/28 09:16:17;;;;;;;3.72;2.38;;;;;;;24.77;34.92;97601.25;10289850;28;20125;-53
2023/07/28 09:21:20;;;;;;;3.63;2.47;;;;;;;24.94;35.47;97596.75;10287142;28;20056;-50
2023/07/28 09:26:19;;;;;;;6.05;2.90;;;;;;;25.11;35.72;97592.09;10285557;28;20129;-52
2023/07/28 09:31:29;;;;;;;3.55;2.38;;;;;;;25.50;35.51;97584.34;10286738;28;20921;-52
2023/07/28 09:36:29;;;;;;;2.78;2.58;;;;;;;25.61;34.18;97563.28;10288582;28;20076;-52
2023/07/28 09:41:30;;;;;;;4.43;3.15;;;;;;;25.58;34.52;97555.53;10287609;28;20057;-53
2023/07/28 09:46:32;;;;;;;3.00;2.67;;;;;;;25.58;33.47;97555.53;10288322;28;20547;-51
2023/07/28 09:51:33;;;;;;;4.88;2.60;;;;;;;25.63;33.45;97545.44;10287406;28;20062;-54
2023/07/28 09:56:32;;;;;;;3.17;2.50;;;;;;;25.63;32.81;97534.81;10287141;28;20971;-53
2023/07/28 10:01:32;;;;;;;3.10;2.80;;;;;;;25.85;33.16;97536.03;10287589;28;20670;-52
2023/07/28 10:06:33;;;;;;;3.97;3.03;;;;;;;25.94;32.40;97530.09;10285297;28;20591;-51
2023/07/28 10:11:32;;;;;;;6.13;3.17;;;;;;;26.11;32.31;97527.19;10274434;28;20146;-52
2023/07/28 10:16:41;;;;;;;6.80;3.17;;;;;;;26.19;31.55;97512.50;10279789;28;20116;-52
2023/07/28 10:21:41;;;;;;;4.13;2.67;;;;;;;26.12;31.15;97518.22;10286809;28;20477;-50
2023/07/28 10:26:41;;;;;;;3.40;3.03;;;;;;;26.01;30.97;97482.69;10283815;28;20121;-52
2023/07/28 10:31:54;;;;;;;2.72;2.53;;;;;;;25.74;30.20;97411.84;10284867;28;20057;-53
2023/07/28 10:37:00;;;;;;;2.78;2.58;;;;;;;26.69;30.53;97508.16;10277146;28;20076;-52
2023/07/28 10:42:08;;;;;;;3.47;2.65;;;;;;;26.54;30.13;97470.19;10282560;28;20128;-52
2023/07/28 10:47:10;;;;;;;3.75;2.95;;;;;;;26.94;29.80;97499.31;10284123;28;20129;-52
2023/07/28 10:52:09;;;;;;;3.25;2.78;;;;;;;26.99;29.12;97486.53;10279348;28;20117;-50
2023/07/28 10:57:11;;;;;;;3.45;2.78;;;;;;;26.96;28.99;97482.28;10281718;28;20129;-52
2023/07/28 11:02:15;;;;;;;5.00;3.60;;;;;;;27.42;29.26;97476.25;10287514;28;20467;-51
2023/07/28 11:07:14;;;;;;;4.10;3.30;;;;;;;27.23;29.10;97393.31;10285688;28;20080;-52
2023/07/28 11:12:14;;;;;;;3.88;2.78;;;;;;;27.95;28.90;97467.88;10283856;28;20026;-52
2023/07/28 11:17:14;;;;;;;4.30;2.75;;;;;;;28.05;27.97;97470.69;10283517;28;20054;-52
2023/07/28 11:22:17;;;;;;;3.60;2.72;;;;;;;27.93;27.78;97458.28;10284402;28;20072;-51
2023/07/28 11:27:16;;;;;;;4.22;2.85;;;;;;;28.00;27.31;97468.38;10289649;28;20116;-52
2023/07/28 11:32:15;;;;;;;4.03;2.72;;;;;;;28.00;27.94;97457.69;10288269;28;20069;-51
2023/07/28 11:37:14;;;;;;;3.38;2.55;;;;;;;28.31;27.47;97442.00;10284919;28;20058;-52
2023/07/28 11:42:14;;;;;;;3.15;2.50;;;;;;;28.29;27.24;97419.09;10284316;28;20053;-52
2023/07/28 11:47:22;;;;;;;3.55;2.63;;;;;;;28.56;27.27;97448.09;10284436;28;20444;-49
2023/07/28 11:52:21;;;;;;;4.15;2.55;;;;;;;28.66;27.50;97449.06;10289614;28;20049;-52
2023/07/28 11:57:21;;;;;;;6.15;3.13;;;;;;;28.94;26.87;97438.84;10290216;28;20543;-53
2023/07/28 12:02:27;;;;;;;4.18;2.60;;;;;;;29.11;26.93;97432.13;10289662;28;20541;-52
2023/07/28 12:07:31;;;;;;;4.70;2.72;;;;;;;29.22;27.26;97394.69;10290119;28;20068;-52
2023/07/28 12:12:31;;;;;;;10.07;3.35;;;;;;;29.64;26.38;97392.97;10288460;28;20077;-53
2023/07/28 12:17:31;;;;;;;3.28;2.60;;;;;;;29.99;26.62;97415.03;10288267;28;20125;-51
2023/07/28 12:22:30;;;;;;;3.53;2.67;;;;;;;29.95;25.47;97405.56;10287432;28;20116;-49
2023/07/28 12:27:29;;;;;;;4.70;3.10;;;;;;;29.94;25.93;97402.06;10288025;28;20081;-52
2023/07/28 12:32:28;;;;;;;4.20;2.95;;;;;;;29.72;25.56;97389.66;10308013;28;20145;-53
2023/07/28 12:37:27;;;;;;;4.15;2.88;;;;;;;29.66;25.32;97395.50;10288341;28;20036;-53
2023/07/28 12:42:25;;;;;;;5.55;2.90;;;;;;;29.92;25.60;97386.13;10288599;28;20026;-53
2023/07/28 12:47:25;;;;;;;3.08;2.55;;;;;;;30.08;24.88;97376.78;10287996;28;20579;-50
2023/07/28 12:52:23;;;;;;;5.00;2.80;;;;;;;29.71;24.54;97372.72;10288176;28;20049;-51
2023/07/28 12:57:23;;;;;;;4.60;2.63;;;;;;;29.89;25.05;97375.72;10287015;28;20030;-52
2023/07/28 13:02:22;;;;;;;3.65;2.90;;;;;;;29.93;25.27;97376.31;10287228;28;20057;-52
2023/07/28 13:07:21;;;;;;;4.75;2.80;;;;;;;30.07;25.36;97364.38;10288387;28;20053;-51
2023/07/28 13:12:20;;;;;;;5.55;2.50;;;;;;;30.36;24.03;97361.84;10285583;28;20073;-52
2023/07/28 13:17:19;;;;;;;4.10;3.05;;;;;;;30.63;24.92;97363.94;10288145;28;20121;-51
2023/07/28 13:22:18;;;;;;;3.42;2.92;;;;;;;30.84;25.50;97312.09;10286925;28;20032;-51
2023/07/28 13:27:17;;;;;;;4.65;2.83;;;;;;;30.61;23.76;97344.50;10286271;28;20044;-51
2023/07/28 13:32:24;;;;;;;3.63;2.88;;;;;;;30.62;25.33;97345.31;10285298;28;20137;-51
2023/07/28 13:37:23;;;;;;;3.70;2.80;;;;;;;30.37;26.23;97335.91;10286168;28;20073;-52
2023/07/28 13:42:22;;;;;;;5.03;2.70;;;;;;;30.56;25.91;97336.00;10285581;28;20021;-52
2023/07/28 13:47:21;;;;;;;5.43;3.22;;;;;;;30.00;26.34;97334.66;10286584;28;20129;-52
2023/07/28 13:52:20;;;;;;;3.90;2.70;;;;;;;30.09;25.57;97331.19;10284640;28;20136;-50
2023/07/28 13:57:19;;;;;;;4.93;2.88;;;;;;;30.28;25.70;97343.78;10285081;28;20057;-52
2023/07/28 14:02:18;;;;;;;4.50;3.10;;;;;;;30.06;26.13;97255.66;10277657;28;20034;-52
2023/07/28 14:07:17;;;;;;;4.90;2.70;;;;;;;30.63;25.32;97331.81;10286476;28;20497;-51
2023/07/28 14:12:16;;;;;;;4.30;3.20;;;;;;;30.83;26.01;97334.50;10284238;28;20052;-52
2023/07/28 14:17:15;;;;;;;4.38;2.60;;;;;;;30.44;27.24;97332.56;10285231;28;20117;-52
2023/07/28 14:22:14;;;;;;;4.53;2.92;;;;;;;30.42;27.31;97334.56;10284294;28;20530;-52
2023/07/28 14:27:13;;;;;;;3.72;2.85;;;;;;;30.45;26.78;97342.31;10283922;28;20496;-51
2023/07/28 14:32:12;;;;;;;5.03;3.03;;;;;;;30.51;27.20;97314.97;10280498;28;20415;-52
2023/07/28 14:37:11;;;;;;;3.80;2.63;;;;;;;30.47;27.61;97318.09;10281365;28;20026;-50
2023/07/28 14:42:10;;;;;;;4.40;3.10;;;;;;;30.26;27.89;97332.38;10283994;28;20132;-51
2023/07/28 14:47:09;;;;;;;3.45;2.65;;;;;;;30.12;28.27;97328.22;10280889;28;20124;-51
2023/07/28 14:52:08;;;;;;;6.00;2.72;;;;;;;30.09;28.15;97332.97;10282950;28;20048;-51
2023/07/28 14:57:13;;;;;;;4.05;2.70;;;;;;;29.86;28.16;97333.19;10283299;28;20022;-50
2023/07/28 15:02:13;;;;;;;3.80;2.78;;;;;;;29.65;28.59;97324.31;10283489;28;20076;-52
2023/07/28 15:07:12;;;;;;;3.78;2.58;;;;;;;29.58;29.25;97318.63;10280756;28;20117;-52
2023/07/28 15:12:11;;;;;;;3.92;2.50;;;;;;;29.50;28.60;97329.94;10280680;28;20140;-49
2023/07/28 15:17:11;;;;;;;3.60;2.72;;;;;;;29.47;29.22;97342.75;10281711;28;20056;-50
2023/07/28 15:22:10;;;;;;;6.03;2.42;;;;;;;29.26;30.00;97338.22;10281752;28;20061;-51
2023/07/28 15:27:09;;;;;;;4.72;2.92;;;;;;;28.85;30.50;97336.28;10278972;28;20030;-51
2023/07/28 15:32:08;;;;;;;2.97;2.65;;;;;;;28.85;30.33;97341.63;10281436;28;20069;-51
2023/07/28 15:37:07;;;;;;;4.57;2.70;;;;;;;28.78;30.87;97346.66;10280981;28;20461;-52
2023/07/28 15:42:05;;;;;;;3.95;2.60;;;;;;;28.54;31.33;97321.91;10280829;28;20092;-50
2023/07/28 15:47:05;;;;;;;3.53;2.90;;;;;;;28.84;31.26;97331.94;10280510;28;20038;-50
2023/07/28 15:52:04;;;;;;;4.40;2.53;;;;;;;28.79;31.13;97345.66;10282388;28;20129;-51
2023/07/28 15:57:03;;;;;;;3.03;2.67;;;;;;;28.54;31.20;97348.59;10281285;28;20160;-51
2023/07/28 16:02:03;;;;;;;4.68;2.92;;;;;;;28.33;31.71;97313.81;10281026;28;20054;-52
2023/07/28 16:07:02;;;;;;;3.00;2.70;;;;;;;28.64;31.71;97344.19;10281415;28;20068;-52
2023/07/28 16:12:01;;;;;;;3.33;2.53;;;;;;;28.41;32.24;97346.09;10281705;28;20045;-49
2023/07/28 16:17:00;;;;;;;4.30;2.42;;;;;;;28.39;32.72;97358.69;10280751;28;20044;-52
2023/07/28 16:21:59;;;;;;;3.67;2.67;;;;;;;28.30;32.36;97367.44;10280660;28;20030;-52
2023/07/28 16:26:58;;;;;;;3.20;2.75;;;;;;;28.14;32.91;97363.28;10281106;28;20117;-52
2023/07/28 16:31:57;;;;;;;5.30;2.85;;;;;;;28.00;33.07;97371.50;10278857;28;20045;-52
2023/07/28 16:36:56;;;;;;;3.95;2.88;;;;;;;27.76;33.30;97368.94;10283920;28;20133;-51
2023/07/28 16:41:55;;;;;;;2.75;2.40;;;;;;;27.65;33.66;97375.06;10288723;28;20109;-52
2023/07/28 16:46:54;;;;;;;5.30;3.13;;;;;;;27.56;33.35;97375.78;10288233;28;20065;-52
2023/07/28 16:51:53;;;;;;;3.22;2.53;;;;;;;27.49;33.61;97377.22;10287821;28;20030;-50
2023/07/28 16:56:53;;;;;;;4.50;2.63;;;;;;;27.32;33.91;97375.78;10287858;28;20112;-52
2023/07/28 17:01:51;;;;;;;4.50;2.67;;;;;;;27.30;34.20;97383.88;10287621;28;20124;-50
2023/07/28 17:06:50;;;;;;;4.07;2.53;;;;;;;27.12;34.37;97393.25;10287450;28;20030;-52
2023/07/28 17:11:49;;;;;;;3.22;2.78;;;;;;;26.92;34.55;97395.59;10287571;28;20032;-52
2023/07/28 17:16:48;;;;;;;4.45;2.67;;;;;;;26.86;34.54;97401.38;10287617;28;20112;-51
2023/07/28 17:21:47;;;;;;;3.50;2.55;;;;;;;26.78;34.70;97406.34;10285914;28;20069;-52
2023/07/28 17:26:46;;;;;;;5.82;2.63;;;;;;;26.56;35.14;97409.72;10286349;28;20038;-50
2023/07/28 17:31:45;;;;;;;6.97;2.83;;;;;;;26.42;36.10;97416.03;10285777;28;20541;-52
2023/07/28 17:36:44;;;;;;;6.25;3.05;;;;;;;26.25;36.40;97417.19;10285516;28;20482;-52
2023/07/28 17:41:44;;;;;;;5.10;2.97;;;;;;;25.94;36.79;97419.28;10287396;28;20502;-51
2023/07/28 17:46:42;;;;;;;17.92;4.95;;;;;;;25.68;38.49;97421.06;10285555;28;20041;-52
2023/07/28 17:51:41;;;;;;;10.32;4.65;;;;;;;25.52;39.74;97429.19;10284916;28;20036;-52
2023/07/28 17:56:40;;;;;;;5.97;3.80;;;;;;;25.36;40.38;97438.28;10285764;28;20466;-52
2023/07/28 18:01:39;;;;;;;5.90;3.63;;;;;;;25.14;40.96;97437.03;10285379;28;20030;-52
2023/07/28 18:06:38;;;;;;;6.90;3.63;;;;;;;24.89;41.83;97436.00;10309816;28;20032;-52
2023/07/28 18:11:37;;;;;;;7.18;3.80;;;;;;;24.64;42.53;97441.13;10283178;28;20113;-52
2023/07/28 18:16:36;;;;;;;8.88;3.70;;;;;;;24.40;42.70;97443.47;10283919;28;20113;-52
2023/07/28 18:21:35;;;;;;;5.72;3.38;;;;;;;24.19;43.60;97453.63;10279523;28;20065;-49
2023/07/28 18:26:34;;;;;;;7.78;3.90;;;;;;;23.96;44.04;97457.63;10284143;28;20113;-49
2023/07/28 18:31:33;;;;;;;8.95;4.82;;;;;;;23.80;44.10;97463.00;10283506;28;20200;-50
2023/07/28 18:36:32;;;;;;;8.70;5.60;;;;;;;23.67;44.53;97473.44;10282923;28;20036;-51
2023/07/28 18:41:32;;;;;;;18.13;7.32;;;;;;;23.40;45.34;97460.00;10283320;28;20061;-51
2023/07/28 18:46:31;;;;;;;18.48;8.73;;;;;;;23.34;45.61;97474.44;10291698;28;20141;-51
2023/07/28 18:51:32;;;;;;;13.70;8.55;;;;;;;23.26;46.29;97481.13;10283281;28;20026;-52
2023/07/28 18:56:31;;;;;;;6.63;4.82;;;;;;;23.00;47.31;97481.63;10284188;28;20132;-52
2023/07/28 19:01:30;;;;;;;6.10;3.90;;;;;;;22.79;48.11;97481.03;10284073;28;20124;-52
2023/07/28 19:06:29;;;;;;;5.72;4.38;;;;;;;22.61;48.63;97487.28;10282501;28;20121;-53
2023/07/28 19:11:28;;;;;;;5.63;4.10;;;;;;;22.42;49.29;97495.34;10282673;28;20163;-52
2023/07/28 19:16:27;;;;;;;5.13;4.10;;;;;;;22.21;49.98;97491.19;10282991;28;20049;-50
2023/07/28 19:21:26;;;;;;;6.47;4.20;;;;;;;22.05;50.72;97491.13;10282646;28;20113;-52
2023/07/28 19:26:25;;;;;;;7.00;4.07;;;;;;;21.90;50.60;97490.97;10280633;28;20124;-50
2023/07/28 19:31:24;;;;;;;4.65;3.17;;;;;;;21.71;51.07;97484.88;10282481;28;20037;-50
2023/07/28 19:36:23;;;;;;;4.40;3.70;;;;;;;21.58;51.02;97481.16;10282846;28;20570;-52
2023/07/28 19:41:24;;;;;;;6.78;3.83;;;;;;;21.47;50.94;97486.97;10282854;28;20451;-51
2023/07/28 19:46:25;;;;;;;11.02;5.78;;;;;;;21.27;52.01;97486.16;10282378;28;20126;-51
2023/07/28 19:51:24;;;;;;;12.52;6.68;;;;;;;21.09;53.58;97479.09;10282003;28;20121;-52
2023/07/28 19:56:25;;;;;;;7.55;5.28;;;;;;;21.02;54.37;97496.13;10282634;28;20069;-51
2023/07/28 20:01:29;;;;;;;8.10;5.82;;;;;;;20.88;55.50;97496.78;10283008;28;20442;-51
2023/07/28 20:06:29;;;;;;;7.00;4.50;;;;;;;20.74;56.81;97504.50;10281889;28;20065;-50
2023/07/28 20:11:28;;;;;;;7.35;4.97;;;;;;;20.60;58.85;97503.31;10283885;28;20065;-52
2023/07/28 20:16:27;;;;;;;9.15;6.50;;;;;;;20.51;59.23;97503.75;10290606;28;20065;-52
2023/07/28 20:21:26;;;;;;;10.60;6.85;;;;;;;20.38;59.32;97498.16;10288552;28;20026;-50
2023/07/28 20:26:25;;;;;;;9.98;6.22;;;;;;;20.33;59.75;97505.41;10289014;28;20038;-47
2023/07/28 20:31:24;;;;;;;8.65;6.05;;;;;;;20.22;59.67;97515.56;10289262;28;20044;-51
2023/07/28 20:36:25;;;;;;;10.07;5.78;;;;;;;20.12;58.73;97507.19;10288604;28;20574;-49
2023/07/28 20:41:24;;;;;;;7.20;4.82;;;;;;;20.04;58.29;97515.41;10287761;28;20120;-51
2023/07/28 20:46:23;;;;;;;11.25;4.53;;;;;;;20.01;57.74;97509.44;10287649;28;20523;-49
2023/07/28 20:51:23;;;;;;;5.88;4.07;;;;;;;19.95;57.74;97513.16;10287320;28;20053;-50
2023/07/28 20:56:22;;;;;;;8.82;5.47;;;;;;;19.83;60.99;97511.06;10287900;28;20058;-49
2023/07/28 21:01:21;;;;;;;7.22;4.95;;;;;;;19.57;63.33;97518.28;10287823;28;20460;-49
2023/07/28 21:06:20;;;;;;;10.00;6.47;;;;;;;19.49;64.18;97524.75;10288179;28;20070;-47
2023/07/28 21:11:19;;;;;;;10.57;6.47;;;;;;;19.46;64.83;97523.06;10286966;28;20137;-50
2023/07/28 21:16:19;;;;;;;8.88;5.80;;;;;;;19.39;65.17;97527.75;10287762;28;20044;-50
2023/07/28 21:21:17;;;;;;;8.13;5.20;;;;;;;19.29;64.81;97518.50;10286504;28;20124;-48
2023/07/28 21:26:16;;;;;;;9.90;5.18;;;;;;;19.26;64.15;97512.53;10287185;28;20046;-50
2023/07/28 21:31:15;;;;;;;6.95;4.43;;;;;;;19.22;62.78;97520.50;10286506;28;20070;-47
2023/07/28 21:36:14;;;;;;;5.97;4.35;;;;;;;19.18;62.31;97518.06;10285834;28;20070;-49
2023/07/28 21:41:13;;;;;;;6.95;4.65;;;;;;;19.13;62.11;97520.88;10285714;28;20018;-51
2023/07/28 21:46:12;;;;;;;8.00;5.88;;;;;;;19.03;65.17;97519.53;10286091;28;20071;-50
2023/07/28 21:51:11;;;;;;;7.75;5.60;;;;;;;18.94;67.14;97522.50;10284318;28;20121;-50
2023/07/28 21:56:10;;;;;;;6.93;4.80;;;;;;;18.69;68.00;97519.94;10284837;28;20049;-48
2023/07/28 22:01:09;;;;;;;9.30;5.70;;;;;;;18.45;68.81;97522.53;10284236;28;20206;-50
2023/07/28 22:06:11;;;;;;;11.30;5.10;;;;;;;18.15;68.58;97498.22;10285944;28;20041;-50
2023/07/28 22:11:10;;;;;;;8.20;5.32;;;;;;;18.30;69.64;97538.88;10284043;28;20582;-50
2023/07/28 22:16:09;;;;;;;7.80;5.95;;;;;;;18.07;70.81;97530.00;10284502;28;20906;-50
2023/07/28 22:21:08;;;;;;;8.85;6.05;;;;;;;17.85;72.76;97544.81;10283815;28;20113;-50
2023/07/28 22:26:07;;;;;;;8.52;6.43;;;;;;;17.71;73.33;97546.06;10283585;28;20116;-50
2023/07/28 22:31:06;;;;;;;10.65;7.05;;;;;;;17.64;73.65;97538.47;10284757;28;20065;-49
2023/07/28 22:36:05;;;;;;;18.98;8.65;;;;;;;17.61;73.43;97535.91;10285148;28;20519;-50
2023/07/28 22:41:04;;;;;;;11.43;7.68;;;;;;;17.57;73.97;97532.56;10284250;28;20045;-49
2023/07/28 22:46:03;;;;;;;8.32;6.88;;;;;;;17.53;73.73;97523.06;10285588;28;20049;-52
2023/07/28 22:51:02;;;;;;;9.18;6.95;;;;;;;17.52;74.11;97519.59;10284253;28;20030;-51
2023/07/28 22:56:01;;;;;;;11.55;6.32;;;;;;;17.46;74.52;97505.81;10284308;28;20065;-49
2023/07/28 23:01:00;;;;;;;10.00;7.03;;;;;;;17.48;74.40;97501.38;10284015;28;20061;-48
2023/07/28 23:05:59;;;;;;;12.20;7.07;;;;;;;17.42;74.54;97507.66;10285270;28;20060;-50
2023/07/28 23:10:58;;;;;;;12.68;6.97;;;;;;;17.43;75.30;97495.41;10283789;28;20069;-51
2023/07/28 23:15:57;;;;;;;10.65;6.95;;;;;;;17.38;75.96;97510.41;10283328;28;20124;-49